Login to view Products
 
Sunday, May 31, 2020 (13:41 UTC)
Al Ain International Airport
ICAO: OMAL
IATA: AAN
  • METAR OMAL 311300Z 29006KT 9999 FEW045 42/17 Q1005 NOSIG=
  • TAF OMAL 311100Z 3112/0118 29012KT 8000 FEW045 PROB30 TEMPO 3112/3115 VRB15G25KT 4000 BLDU FEW045TCU BECMG 3120/3122 18008KT PROB30 TEMPO 0101/0106 18015G25KT 3000 BLDU BECMG 0108/0110 27012KT BECMG 0116/0118 05005KT=
D:\Input Parser\Destinations\Final\11\OMALL12181100602400278.txt
1